Time;durP1;ratioP1;P1;durP2;ratioP2;P2;SDS_P1;SDS_P2;PMS_P1;PMS_P2;Temp;Humidity;BMP_temperature;BMP_pressure;BME280_temperature;BME280_humidity;BME280_pressure;Samples;Min_cycle;Max_cycle;Signal;HPM_P1;HPM_P2
2022/01/27 00:02:08;;;;;;;28.33;21.35;;;;;;;4.27;51.87;102121.78;5130457;28;20395;-78
2022/01/27 00:04:39;;;;;;;23.17;17.07;;;;;;;4.17;52.21;102111.59;5130388;27;20524;-78
2022/01/27 00:07:06;;;;;;;28.08;19.88;;;;;;;4.19;52.13;102125.50;5134183;27;20474;-79
2022/01/27 00:09:47;;;;;;;30.58;21.58;;;;;;;4.24;52.08;102122.75;5134003;27;20771;-79
2022/01/27 00:12:17;;;;;;;21.77;16.83;;;;;;;4.19;52.16;102122.88;5133816;27;20412;-79
2022/01/27 00:14:47;;;;;;;21.67;15.70;;;;;;;4.10;52.51;102109.25;5133826;27;20421;-78
2022/01/27 00:17:25;;;;;;;20.25;15.75;;;;;;;4.12;52.24;102113.53;5133843;27;20466;-80
2022/01/27 00:19:52;;;;;;;15.98;12.75;;;;;;;4.24;51.96;102109.63;5117470;27;20483;-79
2022/01/27 00:22:19;;;;;;;18.17;13.25;;;;;;;4.08;51.97;102119.78;5111946;28;20502;-80
2022/01/27 00:24:47;;;;;;;18.83;14.80;;;;;;;3.92;52.65;102129.06;5113439;28;20491;-80
2022/01/27 00:27:14;;;;;;;22.30;16.83;;;;;;;3.67;52.69;102119.34;5109778;28;20502;-80
2022/01/27 00:29:41;;;;;;;22.95;16.95;;;;;;;3.62;52.44;102126.50;5113015;28;20503;-79
2022/01/27 00:32:09;;;;;;;23.45;18.33;;;;;;;3.35;53.41;102128.19;5112910;28;20494;-79
2022/01/27 00:34:36;;;;;;;22.10;16.40;;;;;;;3.74;52.33;102133.13;5112880;28;20789;-79
2022/01/27 00:37:03;;;;;;;24.42;17.52;;;;;;;3.75;52.03;102133.06;5112886;28;20971;-78
2022/01/27 00:39:30;;;;;;;24.70;18.88;;;;;;;3.57;52.86;102139.75;5113132;28;20488;-79
2022/01/27 00:41:58;;;;;;;19.45;16.25;;;;;;;3.58;53.03;102140.59;5112794;28;20491;-79
2022/01/27 00:44:25;;;;;;;32.35;23.25;;;;;;;3.66;53.02;102137.75;5113016;28;20516;-77
2022/01/27 00:46:52;;;;;;;22.23;17.27;;;;;;;3.63;53.15;102138.69;5112562;28;20944;-79
2022/01/27 00:49:19;;;;;;;18.90;15.90;;;;;;;3.70;52.88;102145.44;5113142;27;20407;-79
2022/01/27 00:51:47;;;;;;;19.30;14.75;;;;;;;3.73;52.83;102139.25;5112906;28;20502;-78
2022/01/27 00:54:19;;;;;;;32.55;25.50;;;;;;;3.67;52.99;102134.19;5112906;28;20426;-77
2022/01/27 00:56:51;;;;;;;27.02;19.95;;;;;;;3.65;53.21;102142.13;5112441;28;20416;-79
2022/01/27 00:59:31;;;;;;;45.90;30.25;;;;;;;3.59;53.31;102129.22;5112691;28;20424;-78
2022/01/27 01:02:07;;;;;;;24.15;18.27;;;;;;;3.54;53.49;102128.50;5112393;28;20412;-80
2022/01/27 01:04:38;;;;;;;19.50;15.57;;;;;;;3.63;53.10;102128.22;5112271;28;20920;-79
2022/01/27 01:07:06;;;;;;;33.25;23.20;;;;;;;3.62;53.22;102129.13;5112407;28;20476;-79
2022/01/27 01:15:10;;;;;;;100.00;57.30;;;;;;;3.58;53.49;102122.25;5115357;28;20480;-79
2022/01/27 01:17:45;;;;;;;37.63;23.75;;;;;;;3.54;53.85;102118.84;5111705;28;20417;-79
2022/01/27 01:20:30;;;;;;;103.03;50.65;;;;;;;3.44;54.25;102100.84;5111851;28;20442;-79
2022/01/27 01:31:16;;;;;;;32.47;21.88;;;;;;;3.40;54.45;102102.72;5132540;27;20922;-78
2022/01/27 01:33:46;;;;;;;26.40;18.50;;;;;;;3.34;54.67;102097.66;5132205;27;20410;-78
2022/01/27 01:36:15;;;;;;;26.30;18.37;;;;;;;3.38;54.86;102096.66;5132555;27;20466;-78
2022/01/27 01:38:45;;;;;;;45.63;29.20;;;;;;;3.51;54.54;102095.38;5132565;27;20487;-78
2022/01/27 01:41:12;;;;;;;19.95;14.52;;;;;;;3.45;54.62;102086.84;5132063;27;20825;-79
2022/01/27 01:43:39;;;;;;;24.58;15.93;;;;;;;3.47;54.52;102085.03;5132150;27;20993;-78
2022/01/27 01:46:06;;;;;;;60.47;28.98;;;;;;;3.57;54.49;102091.72;5132017;27;20907;-78
2022/01/27 01:48:35;;;;;;;48.85;27.55;;;;;;;3.49;54.39;102083.22;5113860;27;20402;-78
2022/01/27 01:51:04;;;;;;;19.30;13.82;;;;;;;3.41;54.74;102094.81;5131942;27;20787;-79
2022/01/27 01:53:31;;;;;;;80.50;40.85;;;;;;;3.50;54.47;102090.19;5131811;27;20406;-78
2022/01/27 01:55:58;;;;;;;17.17;13.15;;;;;;;3.55;54.58;102097.00;5113598;27;20780;-79
2022/01/27 01:58:25;;;;;;;82.60;45.08;;;;;;;3.62;54.22;102100.28;5131720;27;20802;-78
2022/01/27 02:00:52;;;;;;;29.33;18.63;;;;;;;3.54;54.40;102097.03;5131701;27;20416;-78
2022/01/27 02:03:19;;;;;;;19.50;14.18;;;;;;;3.47;54.73;102100.75;5131683;27;20406;-78
2022/01/27 02:05:52;;;;;;;20.63;15.23;;;;;;;3.47;54.90;102106.00;5132020;27;20782;-80
2022/01/27 02:08:48;;;;;;;17.20;13.07;;;;;;;3.45;54.70;102103.44;5113985;27;20428;-79
2022/01/27 02:19:30;;;;;;;15.35;13.05;;;;;;;3.49;54.79;102101.56;5131481;27;20967;-78
2022/01/27 02:22:00;;;;;;;19.67;15.85;;;;;;;3.41;54.84;102100.06;5131098;27;20420;-78
2022/01/27 02:24:30;;;;;;;15.13;12.32;;;;;;;3.42;55.58;102107.00;5131590;27;20409;-78
2022/01/27 02:26:58;;;;;;;17.92;14.60;;;;;;;3.58;55.47;102096.03;5130760;27;20426;-78
2022/01/27 02:29:26;;;;;;;15.95;13.40;;;;;;;3.78;55.22;102092.78;5130652;27;20911;-78
2022/01/27 02:31:56;;;;;;;18.60;15.88;;;;;;;3.72;55.37;102093.84;5130758;27;20425;-78
2022/01/27 02:34:24;;;;;;;20.77;17.05;;;;;;;3.72;55.53;102085.97;5131691;27;20480;-78
2022/01/27 02:36:51;;;;;;;15.95;13.90;;;;;;;3.73;55.48;102086.81;5131109;27;20835;-78
2022/01/27 02:39:19;;;;;;;16.20;14.15;;;;;;;3.80;55.37;102088.34;5131241;27;20405;-78
2022/01/27 02:41:52;;;;;;;17.13;14.15;;;;;;;3.91;55.15;102083.59;5131572;27;20409;-78
2022/01/27 02:44:30;;;;;;;16.67;13.90;;;;;;;3.97;54.96;102085.19;5130904;27;20406;-77
2022/01/27 02:46:57;;;;;;;14.93;13.20;;;;;;;4.04;54.89;102086.69;5130823;27;20837;-78
2022/01/27 02:49:25;;;;;;;18.33;15.35;;;;;;;4.14;54.76;102087.25;5130882;27;20492;-78
2022/01/27 02:51:52;;;;;;;15.55;13.20;;;;;;;4.20;54.45;102072.16;5130770;27;20501;-78
2022/01/27 02:54:21;;;;;;;15.35;13.65;;;;;;;3.96;55.12;102073.00;5130887;27;20522;-78
2022/01/27 02:56:48;;;;;;;16.95;14.70;;;;;;;3.95;55.52;102069.50;5112428;27;20784;-79
2022/01/27 02:59:16;;;;;;;16.35;14.10;;;;;;;3.99;55.43;102070.25;5130971;27;20434;-79
2022/01/27 03:01:45;;;;;;;18.20;15.63;;;;;;;4.09;55.11;102066.41;5130970;27;20405;-78
2022/01/27 03:04:12;;;;;;;20.45;17.48;;;;;;;3.83;55.71;102071.66;5130535;27;20417;-78
2022/01/27 03:06:39;;;;;;;21.27;17.60;;;;;;;4.00;55.40;102064.09;5111917;27;20406;-77
2022/01/27 03:09:06;;;;;;;22.00;17.90;;;;;;;3.92;55.64;102053.03;5129737;27;20417;-78
2022/01/27 03:11:39;;;;;;;21.50;17.60;;;;;;;3.85;55.67;102069.84;5129902;27;20788;-77
2022/01/27 03:14:07;;;;;;;20.30;16.52;;;;;;;3.79;56.06;102066.53;5129592;27;20397;-79
2022/01/27 03:16:35;;;;;;;20.00;16.52;;;;;;;3.97;55.40;102058.94;5129789;27;20406;-77
2022/01/27 03:19:02;;;;;;;18.35;15.63;;;;;;;3.91;55.69;102053.91;5129526;27;20418;-77
2022/01/27 03:21:29;;;;;;;29.70;23.02;;;;;;;3.88;55.63;102059.28;5130252;27;20903;-78
2022/01/27 03:23:56;;;;;;;20.45;16.98;;;;;;;3.98;55.12;102068.53;5130223;27;20489;-78
2022/01/27 03:26:24;;;;;;;21.67;17.25;;;;;;;4.05;54.95;102070.03;5130705;27;20405;-78
2022/01/27 03:28:52;;;;;;;15.25;13.02;;;;;;;4.03;54.92;102069.22;5130642;28;20860;-79
2022/01/27 03:31:19;;;;;;;25.80;19.73;;;;;;;4.01;54.80;102081.53;5130272;28;20489;-78
2022/01/27 03:33:46;;;;;;;18.23;15.15;;;;;;;3.90;55.21;102086.31;5130213;28;20870;-79
2022/01/27 03:36:14;;;;;;;28.97;25.63;;;;;;;3.70;55.19;102087.78;5130663;28;20541;-78
2022/01/27 03:38:41;;;;;;;15.02;12.00;;;;;;;2.97;56.15;102081.28;5130745;27;20468;-79
2022/01/27 03:41:09;;;;;;;14.90;13.32;;;;;;;2.68;57.00;102095.19;5134605;27;20402;-79
2022/01/27 03:43:40;;;;;;;37.60;34.67;;;;;;;2.71;57.01;102094.25;5134351;27;20475;-79
2022/01/27 03:46:09;;;;;;;13.13;11.70;;;;;;;2.41;57.66;102091.56;5134779;27;20485;-78
2022/01/27 03:48:36;;;;;;;19.23;17.37;;;;;;;2.72;57.10;102093.38;5134482;27;20876;-77
2022/01/27 03:51:03;;;;;;;17.13;15.45;;;;;;;2.91;56.39;102097.16;5134270;27;20484;-79
2022/01/27 03:53:31;;;;;;;14.97;13.03;;;;;;;3.11;55.58;102103.59;5134286;27;20409;-79
2022/01/27 03:55:58;;;;;;;22.23;20.20;;;;;;;3.16;55.56;102102.56;5134640;27;20401;-77
2022/01/27 03:58:25;;;;;;;15.20;13.68;;;;;;;3.25;55.08;102093.56;5134182;27;20406;-79
2022/01/27 04:00:52;;;;;;;18.40;16.30;;;;;;;2.75;56.42;102096.72;5134698;27;20970;-79
2022/01/27 04:03:21;;;;;;;18.70;16.67;;;;;;;2.67;57.16;102095.25;5134443;27;20504;-79
2022/01/27 04:05:52;;;;;;;20.60;16.30;;;;;;;2.88;56.14;102094.66;5133989;27;20398;-78
2022/01/27 04:08:19;;;;;;;16.90;14.05;;;;;;;2.93;56.19;102100.59;5133880;27;20421;-78
2022/01/27 04:10:46;;;;;;;21.52;18.80;;;;;;;2.82;56.59;102105.28;5134285;27;20436;-79
2022/01/27 04:13:14;;;;;;;25.40;22.70;;;;;;;2.69;57.03;102104.75;5133885;27;20413;-78
2022/01/27 04:15:42;;;;;;;28.67;25.08;;;;;;;2.88;56.58;102102.50;5133841;27;20898;-79
2022/01/27 04:18:09;;;;;;;28.58;25.58;;;;;;;2.79;56.80;102114.06;5134360;27;20412;-79
2022/01/27 04:20:38;;;;;;;55.72;41.17;;;;;;;2.85;56.86;102115.66;5134286;27;21100;-79
2022/01/27 04:23:05;;;;;;;126.13;85.53;;;;;;;2.77;57.17;102109.78;5133868;27;20917;-79
2022/01/27 04:25:33;;;;;;;89.90;65.20;;;;;;;2.87;57.02;102107.78;5133995;27;20860;-78
2022/01/27 04:28:04;;;;;;;79.05;63.45;;;;;;;2.85;56.98;102112.19;5133584;27;20474;-78
2022/01/27 04:30:31;;;;;;;57.30;42.63;;;;;;;2.93;57.05;102115.44;5133795;27;20406;-78
2022/01/27 04:32:58;;;;;;;39.30;30.13;;;;;;;2.89;56.97;102114.66;5133349;27;20433;-79
2022/01/27 04:35:30;;;;;;;62.35;44.90;;;;;;;2.84;57.32;102119.19;5133290;27;20397;-78
2022/01/27 04:38:11;;;;;;;69.13;50.50;;;;;;;2.94;57.24;102109.28;5133612;27;20410;-79
2022/01/27 04:40:45;;;;;;;54.03;45.03;;;;;;;3.00;57.00;102112.63;5133403;27;20406;-78
2022/01/27 04:43:20;;;;;;;110.20;79.55;;;;;;;2.94;57.31;102119.78;5133252;27;20414;-78
2022/01/27 04:45:55;;;;;;;75.00;55.72;;;;;;;3.04;57.13;102125.59;5132882;27;20787;-77
2022/01/27 04:48:24;;;;;;;64.30;55.17;;;;;;;3.03;57.15;102118.66;5131432;27;20452;-79
2022/01/27 04:50:52;;;;;;;41.13;34.27;;;;;;;2.91;57.71;102123.34;5112531;27;20983;-79
2022/01/27 04:53:26;;;;;;;29.00;25.00;;;;;;;2.91;57.68;102128.56;5131502;27;20406;-77
2022/01/27 04:55:56;;;;;;;79.57;67.45;;;;;;;2.90;57.78;102116.41;5132563;27;20457;-80
2022/01/27 04:58:30;;;;;;;54.25;47.35;;;;;;;2.95;57.80;102122.34;5132575;27;20417;-79
2022/01/27 05:00:59;;;;;;;66.32;55.95;;;;;;;3.11;57.17;102119.31;5132673;27;20406;-80
2022/01/27 05:03:35;;;;;;;38.65;34.03;;;;;;;3.03;57.70;102124.75;5133135;27;20451;-80
2022/01/27 05:06:02;;;;;;;79.90;71.35;;;;;;;3.14;57.31;102130.56;5132771;27;20445;-79
2022/01/27 05:08:31;;;;;;;294.20;208.27;;;;;;;3.03;57.64;102131.75;5132655;27;20512;-78
2022/01/27 05:11:02;;;;;;;41.58;36.25;;;;;;;3.10;57.33;102125.44;5133372;27;20398;-79
2022/01/27 05:13:36;;;;;;;48.35;43.20;;;;;;;3.17;57.05;102130.44;5132264;27;20410;-78
2022/01/27 05:16:03;;;;;;;25.45;22.13;;;;;;;3.13;57.03;102134.06;5130561;27;20462;-77
2022/01/27 05:18:30;;;;;;;31.27;27.88;;;;;;;3.22;57.11;102138.16;5132096;27;20410;-78
2022/01/27 05:20:57;;;;;;;48.25;43.17;;;;;;;3.12;57.07;102131.47;5132599;27;20402;-76
2022/01/27 05:23:24;;;;;;;38.78;33.33;;;;;;;3.28;56.71;102132.75;5114618;27;20489;-75
2022/01/27 05:25:52;;;;;;;28.17;24.30;;;;;;;3.18;56.84;102126.94;5132789;27;20410;-75
2022/01/27 05:28:19;;;;;;;39.00;34.55;;;;;;;3.22;56.71;102132.94;5132764;27;20426;-74
2022/01/27 05:30:46;;;;;;;68.07;51.55;;;;;;;3.32;56.32;102137.00;5132727;27;20405;-74
2022/01/27 05:33:13;;;;;;;51.23;42.43;;;;;;;3.29;56.50;102136.25;5132222;27;20410;-76
2022/01/27 05:35:45;;;;;;;43.95;37.42;;;;;;;3.33;56.44;102133.47;5132321;27;20409;-76
2022/01/27 05:38:13;;;;;;;69.65;57.47;;;;;;;3.35;56.16;102136.91;5132397;27;20441;-75
2022/01/27 05:40:40;;;;;;;69.57;56.10;;;;;;;3.32;56.33;102138.75;5132026;27;20481;-75
2022/01/27 05:43:09;;;;;;;45.10;40.10;;;;;;;3.44;55.97;102141.00;5131798;27;20533;-76
2022/01/27 05:45:36;;;;;;;58.53;48.17;;;;;;;3.41;56.10;102144.59;5132322;27;20390;-75
2022/01/27 05:48:04;;;;;;;27.42;23.65;;;;;;;3.48;55.64;102141.78;5132442;27;20458;-75
2022/01/27 05:50:32;;;;;;;57.03;48.33;;;;;;;3.54;55.50;102144.22;5131259;27;20488;-75
2022/01/27 05:52:59;;;;;;;168.23;133.70;;;;;;;3.51;55.56;102145.19;5128907;27;20481;-75
2022/01/27 05:55:26;;;;;;;50.13;44.43;;;;;;;3.45;55.88;102147.09;5129681;27;20412;-74
2022/01/27 05:57:53;;;;;;;96.70;81.03;;;;;;;3.55;55.42;102151.19;5130533;27;20505;-76
2022/01/27 06:00:22;;;;;;;50.47;39.33;;;;;;;3.86;54.90;102155.47;5130589;27;20480;-76
2022/01/27 06:02:49;;;;;;;188.70;138.88;;;;;;;3.90;54.42;102147.44;5128933;27;20489;-75
2022/01/27 06:05:16;;;;;;;62.70;44.63;;;;;;;3.78;54.60;102155.72;5131653;27;20489;-74
2022/01/27 06:07:43;;;;;;;66.50;58.05;;;;;;;4.31;53.44;102160.97;5131272;27;20409;-75
2022/01/27 06:10:10;;;;;;;45.20;37.87;;;;;;;6.09;49.09;102150.91;5131675;27;20520;-76
2022/01/27 06:12:49;;;;;;;52.25;46.55;;;;;;;7.67;45.58;102158.03;5131275;27;20930;-76
2022/01/27 06:15:16;;;;;;;63.83;57.78;;;;;;;8.54;43.18;102166.94;5131033;27;20412;-77
2022/01/27 06:17:45;;;;;;;29.02;25.10;;;;;;;9.71;40.65;102163.34;5131495;27;20836;-77
2022/01/27 06:20:13;;;;;;;42.88;38.50;;;;;;;10.84;38.13;102165.63;5113300;27;20870;-79
2022/01/27 06:22:40;;;;;;;34.33;30.90;;;;;;;11.32;37.11;102176.81;5131626;27;20421;-77
2022/01/27 06:25:09;;;;;;;41.63;37.60;;;;;;;12.01;35.65;102168.91;5113097;27;20410;-78
2022/01/27 06:27:36;;;;;;;23.92;21.48;;;;;;;13.26;33.44;102171.91;5131088;27;20409;-76
2022/01/27 06:30:05;;;;;;;27.88;25.15;;;;;;;14.26;31.55;102174.47;5131578;27;20477;-75
2022/01/27 06:32:32;;;;;;;26.98;24.30;;;;;;;14.88;30.21;102171.50;5131647;27;20413;-77
2022/01/27 06:35:03;;;;;;;43.75;39.30;;;;;;;15.65;29.08;102181.38;5131742;27;20776;-76
2022/01/27 06:37:30;;;;;;;34.70;31.25;;;;;;;16.22;27.76;102190.97;5131335;27;20398;-77
2022/01/27 06:39:57;;;;;;;44.83;40.73;;;;;;;16.57;27.60;102189.81;5131361;27;20481;-77
2022/01/27 06:42:24;;;;;;;23.30;21.02;;;;;;;17.93;25.74;102197.63;5131342;27;20405;-76
2022/01/27 06:44:51;;;;;;;29.93;27.00;;;;;;;18.62;24.85;102190.41;5130913;27;20490;-77
2022/01/27 06:47:18;;;;;;;31.75;28.70;;;;;;;19.41;23.91;102192.72;5131475;27;20410;-74
2022/01/27 06:49:45;;;;;;;38.10;34.35;;;;;;;20.22;22.53;102204.53;5130825;27;20517;-75
2022/01/27 06:52:13;;;;;;;33.50;30.30;;;;;;;20.83;21.75;102192.06;5130958;27;20489;-74
2022/01/27 06:54:40;;;;;;;27.60;25.10;;;;;;;20.92;21.26;102193.78;5130698;27;20480;-74
2022/01/27 06:57:08;;;;;;;36.13;32.83;;;;;;;21.58;20.68;102200.34;5130764;27;20493;-77
2022/01/27 06:59:35;;;;;;;36.78;33.33;;;;;;;21.19;20.96;102195.47;5130836;27;20485;-76
2022/01/27 07:02:03;;;;;;;44.60;40.30;;;;;;;21.93;20.34;102201.13;5130617;27;20903;-76
2022/01/27 07:04:30;;;;;;;89.28;80.88;;;;;;;22.65;19.58;102187.00;5131041;27;20441;-75
2022/01/27 07:06:57;;;;;;;32.58;29.35;;;;;;;22.81;19.16;102196.94;5130504;27;20494;-77
2022/01/27 07:09:25;;;;;;;30.43;27.63;;;;;;;24.27;17.97;102199.13;5130374;27;20939;-76
2022/01/27 07:11:52;;;;;;;35.10;32.10;;;;;;;24.38;17.58;102198.66;5130969;27;20489;-77
2022/01/27 07:14:19;;;;;;;25.50;23.30;;;;;;;25.44;16.92;102205.91;5130493;27;20402;-76
2022/01/27 07:16:47;;;;;;;27.05;24.65;;;;;;;26.04;15.98;102206.63;5131068;27;20441;-76
2022/01/27 07:19:13;;;;;;;25.70;23.40;;;;;;;26.98;15.82;102209.03;5130851;27;20424;-75
2022/01/27 07:21:40;;;;;;;32.97;30.08;;;;;;;27.10;15.26;102210.16;5130641;27;20438;-76
2022/01/27 07:24:08;;;;;;;32.40;29.50;;;;;;;28.04;14.48;102207.81;5130992;27;20496;-76
2022/01/27 07:26:38;;;;;;;36.58;33.28;;;;;;;27.66;14.52;102209.19;5129994;27;20513;-76
2022/01/27 07:29:05;;;;;;;32.53;29.50;;;;;;;27.62;14.69;102196.19;5130526;28;20517;-76
2022/01/27 07:31:32;;;;;;;28.55;25.90;;;;;;;28.17;14.46;102202.41;5130269;28;20413;-76
2022/01/27 07:33:59;;;;;;;28.02;25.55;;;;;;;28.63;13.78;102201.59;5130506;28;20406;-78
2022/01/27 07:36:28;;;;;;;30.70;28.00;;;;;;;28.29;14.25;102205.34;5130878;28;20393;-78
2022/01/27 07:38:55;;;;;;;32.03;29.02;;;;;;;28.29;14.21;102203.44;5130527;28;20406;-76
2022/01/27 07:41:22;;;;;;;22.43;20.53;;;;;;;28.39;14.27;102197.59;5112072;28;20938;-78
2022/01/27 07:43:51;;;;;;;18.67;16.98;;;;;;;29.49;13.27;102194.22;5130672;28;20405;-78
2022/01/27 07:46:18;;;;;;;18.13;16.63;;;;;;;30.01;12.95;102202.31;5130470;28;20452;-77
2022/01/27 07:48:45;;;;;;;14.80;13.60;;;;;;;30.12;12.72;102198.88;5130180;28;20796;-78
2022/01/27 07:51:12;;;;;;;16.25;14.75;;;;;;;30.46;12.41;102189.38;5130465;28;20401;-77
2022/01/27 07:53:42;;;;;;;16.35;14.82;;;;;;;29.66;13.14;102197.25;5130092;28;20496;-77
2022/01/27 07:56:09;;;;;;;19.13;17.53;;;;;;;30.47;12.57;102191.03;5130519;28;20406;-76
2022/01/27 07:58:38;;;;;;;23.40;21.15;;;;;;;30.94;12.43;102180.50;5130206;28;20417;-77
2022/01/27 08:01:09;;;;;;;21.30;19.23;;;;;;;31.35;12.08;102181.66;5130437;28;20410;-77
2022/01/27 08:03:37;;;;;;;18.23;16.52;;;;;;;30.72;12.65;102182.81;5129977;28;20402;-76
2022/01/27 08:06:05;;;;;;;17.48;15.88;;;;;;;30.62;12.57;102181.63;5129995;28;20494;-75
2022/01/27 08:08:32;;;;;;;30.43;27.73;;;;;;;31.25;11.90;102170.44;5129689;28;20803;-77
2022/01/27 08:11:00;;;;;;;20.80;19.10;;;;;;;31.48;11.60;102163.41;5129226;28;20402;-76
2022/01/27 08:13:27;;;;;;;19.70;18.02;;;;;;;30.70;12.27;102171.25;5130208;28;20493;-77
2022/01/27 08:15:55;;;;;;;20.58;18.73;;;;;;;32.46;11.35;102170.31;5130328;28;20489;-77
2022/01/27 08:18:23;;;;;;;19.58;17.88;;;;;;;32.96;10.42;102179.09;5129967;28;20494;-78
2022/01/27 08:20:50;;;;;;;16.80;15.32;;;;;;;32.09;11.41;102172.41;5130537;28;20437;-77
2022/01/27 08:23:17;;;;;;;16.85;15.25;;;;;;;31.71;11.48;102185.41;5129730;28;20440;-77
2022/01/27 08:25:48;;;;;;;22.00;20.00;;;;;;;32.53;10.80;102183.91;5130001;27;20993;-78
2022/01/27 08:28:22;;;;;;;16.85;15.35;;;;;;;33.18;10.47;102184.81;5133583;27;20449;-79
2022/01/27 08:30:52;;;;;;;23.13;20.93;;;;;;;33.99;9.88;102184.69;5133621;27;20414;-79
2022/01/27 08:33:20;;;;;;;19.53;17.77;;;;;;;34.39;9.93;102187.28;5133981;27;20401;-76
2022/01/27 08:35:48;;;;;;;18.73;17.02;;;;;;;36.07;9.02;102193.16;5133823;27;20409;-78
2022/01/27 08:38:15;;;;;;;21.63;19.77;;;;;;;37.06;8.34;102189.91;5133693;27;20405;-77
2022/01/27 08:40:42;;;;;;;37.25;33.78;;;;;;;36.61;8.29;102192.16;5133188;27;20803;-76
2022/01/27 08:43:09;;;;;;;19.08;17.20;;;;;;;36.27;8.75;102195.25;5133198;27;20448;-79
2022/01/27 08:45:38;;;;;;;23.87;21.70;;;;;;;36.09;8.83;102188.22;5133277;27;20994;-77
2022/01/27 08:48:06;;;;;;;20.50;18.70;;;;;;;35.73;8.58;102197.25;5133160;27;20410;-77
2022/01/27 08:50:35;;;;;;;17.45;15.95;;;;;;;35.37;9.02;102183.94;5132889;27;20505;-78
2022/01/27 08:53:04;;;;;;;19.02;17.10;;;;;;;35.18;8.87;102191.72;5133381;27;20410;-77
2022/01/27 08:55:30;;;;;;;21.33;19.23;;;;;;;36.13;8.23;102199.53;5132975;27;20512;-78
2022/01/27 08:57:57;;;;;;;18.92;17.20;;;;;;;34.48;9.15;102195.94;5132875;27;20837;-77
2022/01/27 09:00:25;;;;;;;18.73;17.13;;;;;;;36.76;8.42;102193.38;5133048;27;20490;-77
2022/01/27 09:02:52;;;;;;;20.23;18.42;;;;;;;37.10;7.90;102191.84;5132937;27;20917;-76
2022/01/27 09:05:19;;;;;;;25.85;23.55;;;;;;;36.66;8.17;102191.38;5132783;27;20475;-74
2022/01/27 09:07:46;;;;;;;24.65;22.40;;;;;;;37.58;7.82;102202.84;5132891;27;20409;-77
2022/01/27 09:10:15;;;;;;;18.00;16.53;;;;;;;38.33;7.05;102190.41;5132670;27;21001;-76
2022/01/27 09:12:42;;;;;;;18.20;16.60;;;;;;;37.99;7.36;102189.03;5132951;27;20492;-76
2022/01/27 09:15:09;;;;;;;15.98;14.45;;;;;;;37.01;7.86;102187.16;5132956;27;20410;-75
2022/01/27 09:17:40;;;;;;;18.20;16.50;;;;;;;37.11;7.67;102181.69;5132616;27;20484;-76
2022/01/27 09:20:09;;;;;;;14.68;13.30;;;;;;;35.77;8.31;102170.81;5132786;27;20466;-75
2022/01/27 09:22:37;;;;;;;16.38;14.68;;;;;;;34.80;8.74;102174.13;5132652;27;20417;-77
2022/01/27 09:25:12;;;;;;;16.08;14.57;;;;;;;34.27;8.78;102172.78;5132636;27;20410;-77
2022/01/27 09:27:42;;;;;;;14.48;13.18;;;;;;;35.39;8.35;102172.66;5132303;27;20896;-77
2022/01/27 09:30:11;;;;;;;14.10;12.50;;;;;;;35.42;8.53;102163.84;5132658;27;21340;-75
2022/01/27 09:32:38;;;;;;;13.18;11.98;;;;;;;35.90;8.25;102151.91;5132717;27;20413;-75
2022/01/27 09:35:06;;;;;;;14.50;13.20;;;;;;;35.03;8.68;102159.25;5132306;27;20510;-77
2022/01/27 09:37:33;;;;;;;15.65;14.18;;;;;;;36.06;8.12;102149.28;5132305;27;20405;-77
2022/01/27 09:40:00;;;;;;;16.23;14.73;;;;;;;35.28;8.59;102155.16;5132443;27;20409;-75
2022/01/27 09:42:31;;;;;;;17.75;16.05;;;;;;;35.66;8.19;102148.69;5132097;27;20409;-75
2022/01/27 09:45:05;;;;;;;25.17;22.95;;;;;;;36.39;7.88;102145.38;5132332;27;20410;-76
2022/01/27 09:47:34;;;;;;;31.73;28.83;;;;;;;35.80;8.10;102135.28;5132060;27;20926;-76
2022/01/27 09:50:18;;;;;;;19.40;17.53;;;;;;;36.01;7.92;102138.22;5131921;27;20457;-75
2022/01/27 09:52:46;;;;;;;14.43;13.07;;;;;;;37.36;7.16;102133.13;5132410;27;20934;-75
2022/01/27 09:55:12;;;;;;;17.13;15.50;;;;;;;36.26;8.02;102127.38;5131854;27;20497;-75
2022/01/27 09:57:39;;;;;;;12.68;11.30;;;;;;;36.77;7.38;102123.25;5132060;27;20414;-77
2022/01/27 10:00:09;;;;;;;13.10;11.57;;;;;;;37.77;7.21;102113.81;5131938;27;20414;-74
2022/01/27 10:02:36;;;;;;;13.73;12.38;;;;;;;37.78;7.23;102118.25;5131717;27;20490;-75
2022/01/27 10:05:03;;;;;;;13.73;12.43;;;;;;;36.90;7.01;102108.94;5131914;27;20402;-76
2022/01/27 10:07:37;;;;;;;42.92;38.47;;;;;;;37.00;7.50;102102.63;5131815;27;20412;-78
2022/01/27 10:10:08;;;;;;;18.37;16.40;;;;;;;35.63;7.85;102107.03;5131797;27;20429;-78
2022/01/27 10:12:40;;;;;;;22.17;20.07;;;;;;;36.34;7.43;102101.22;5131524;27;20462;-76
2022/01/27 10:15:11;;;;;;;20.25;18.25;;;;;;;35.22;7.73;102101.97;5131606;27;20401;-76
2022/01/27 10:17:40;;;;;;;21.35;17.17;;;;;;;35.38;7.71;102100.16;5131187;27;20433;-76
2022/01/27 10:20:17;;;;;;;13.90;12.38;;;;;;;34.08;8.44;102081.44;5130908;27;20432;-76
2022/01/27 10:23:10;;;;;;;13.18;11.88;;;;;;;33.88;8.65;102095.69;5131114;27;20498;-76
2022/01/27 10:25:46;;;;;;;13.65;12.25;;;;;;;35.17;8.04;102084.53;5131146;27;20922;-76
2022/01/27 10:28:25;;;;;;;11.35;10.30;;;;;;;33.08;9.10;102078.31;5132398;27;20431;-78
2022/01/27 10:31:03;;;;;;;11.95;10.95;;;;;;;33.81;8.78;102087.63;5131280;27;20422;-76
2022/01/27 10:33:45;;;;;;;12.63;11.50;;;;;;;32.96;9.25;102085.78;5130961;27;20431;-77
2022/01/27 10:36:21;;;;;;;16.88;13.38;;;;;;;32.88;9.30;102085.06;5131014;27;20402;-77
2022/01/27 10:38:51;;;;;;;14.80;12.98;;;;;;;31.49;9.95;102083.75;5131455;27;20406;-77
2022/01/27 10:41:18;;;;;;;17.83;10.80;;;;;;;31.28;10.15;102074.13;5130958;27;20497;-76
2022/01/27 10:43:45;;;;;;;11.50;10.30;;;;;;;31.67;9.94;102068.31;5131247;27;20409;-77
2022/01/27 10:46:21;;;;;;;12.10;10.73;;;;;;;30.44;10.79;102056.69;5131191;27;20445;-78
2022/01/27 10:48:53;;;;;;;13.15;11.63;;;;;;;32.79;9.51;102058.25;5130156;27;20413;-76
2022/01/27 10:51:25;;;;;;;12.10;10.90;;;;;;;28.96;11.56;102056.94;5130921;27;20433;-76
2022/01/27 10:53:58;;;;;;;11.27;10.23;;;;;;;29.88;11.18;102063.94;5131088;27;20445;-77
2022/01/27 10:56:27;;;;;;;15.33;13.73;;;;;;;30.75;10.99;102055.69;5131698;27;20410;-78
2022/01/27 10:58:55;;;;;;;15.57;14.13;;;;;;;31.03;10.90;102048.81;5130995;27;20417;-78
2022/01/27 11:01:31;;;;;;;13.13;11.88;;;;;;;31.00;10.41;102041.06;5130691;27;20776;-76
2022/01/27 11:04:01;;;;;;;11.43;10.43;;;;;;;29.03;11.47;102042.41;5130610;27;20410;-77
2022/01/27 11:06:29;;;;;;;13.67;12.27;;;;;;;29.77;11.29;102040.09;5130570;27;20973;-77
2022/01/27 11:08:59;;;;;;;13.20;12.00;;;;;;;28.89;11.67;102031.59;5130873;27;20496;-77
2022/01/27 11:11:27;;;;;;;11.80;10.60;;;;;;;28.04;12.87;102037.06;5130608;27;20421;-78
2022/01/27 11:13:58;;;;;;;13.85;11.43;;;;;;;28.90;11.89;102032.41;5131212;27;20467;-75
2022/01/27 11:16:34;;;;;;;13.73;12.40;;;;;;;27.80;12.69;102024.91;5130725;27;20405;-77
2022/01/27 11:19:14;;;;;;;12.15;10.93;;;;;;;27.86;12.59;102031.38;5130284;27;20413;-75
2022/01/27 11:21:44;;;;;;;12.02;10.73;;;;;;;27.61;12.57;102012.13;5130450;27;20513;-76
2022/01/27 11:24:23;;;;;;;12.10;10.90;;;;;;;27.42;13.13;102027.41;5130644;27;20894;-77
2022/01/27 11:26:53;;;;;;;11.25;10.15;;;;;;;27.24;13.29;102023.38;5130212;27;20405;-74
2022/01/27 11:29:21;;;;;;;11.35;10.23;;;;;;;25.91;13.78;102019.97;5130094;27;20449;-74
2022/01/27 11:32:13;;;;;;;14.27;12.38;;;;;;;23.60;15.74;102023.84;5129781;28;20977;-75
2022/01/27 11:34:52;;;;;;;12.30;11.07;;;;;;;25.32;14.43;102034.66;5126702;28;20483;-74
2022/01/27 11:37:31;;;;;;;15.23;13.15;;;;;;;24.81;14.87;102029.25;5130024;28;20434;-76
2022/01/27 11:40:03;;;;;;;17.80;16.30;;;;;;;24.51;14.80;102015.72;5130507;28;20420;-77
2022/01/27 11:42:43;;;;;;;20.77;18.88;;;;;;;24.09;15.64;102015.34;5130153;28;20489;-75
2022/01/27 11:45:28;;;;;;;11.80;10.48;;;;;;;20.33;18.43;102015.03;5111964;28;20489;-75
2022/01/27 11:47:58;;;;;;;11.30;10.15;;;;;;;20.62;18.50;102006.66;5130128;28;20412;-75